This is the latest recevied weather packets stored in our database for station/object IW3HBX-13. If no packets are shown the sender has not sent any weather packets the latest 10 day(s).
| Time | Temp. | Humidity | Pressure | Rain* | Wind** | Luminosity | Snow |
|---|---|---|---|---|---|---|---|
| 1777891327 | 24.44° C | 48% | 1017.7 hPa | 0 mm | - | 699 W/m² | - |
| 1777890967 | 23.89° C | 48% | 1017.8 hPa | 0 mm | - | 643 W/m² | - |
| 1777890608 | 22.78° C | 51% | 1017.8 hPa | 0 mm | - | 700 W/m² | - |
| 1777890247 | 23.33° C | 50% | 1017.9 hPa | 0 mm | - | 547 W/m² | - |
| 1777889887 | 23.89° C | 49% | 1017.9 hPa | 0 mm | - | 661 W/m² | - |
| 1777889527 | 22.78° C | 51% | 1018 hPa | 0 mm | - | 659 W/m² | - |
| 1777889167 | 22.22° C | 51% | 1017.9 hPa | 0 mm | - | 782 W/m² | - |
| 1777888449 | 22.78° C | 51% | 1018 hPa | 0 mm | - | 774 W/m² | - |
| 1777888089 | 22.22° C | 52% | 1018 hPa | 0 mm | - | 729 W/m² | - |
| 1777887727 | 22.78° C | 50% | 1018.1 hPa | 0 mm | - | 684 W/m² | - |
| 1777887367 | 22.22° C | 52% | 1018.1 hPa | 0 mm | - | 750 W/m² | - |
| 1777887007 | 22.22° C | 51% | 1018.1 hPa | 0 mm | - | 748 W/m² | - |
| 1777886647 | 21.67° C | 52% | 1018.1 hPa | 0 mm | - | 692 W/m² | - |
| 1777886287 | 21.67° C | 51% | 1018.2 hPa | 0 mm | - | 555 W/m² | - |
| 1777885927 | 21.11° C | 52% | 1018.2 hPa | 0 mm | - | 651 W/m² | - |
| 1777885567 | 21.67° C | 52% | 1018.2 hPa | 0 mm | - | 689 W/m² | - |
| 1777884850 | 21.67° C | 53% | 1018.3 hPa | 0 mm | - | 666 W/m² | - |
| 1777884487 | 21.11° C | 53% | 1018.2 hPa | 0 mm | - | 538 W/m² | - |
| 1777884128 | 21.11° C | 55% | 1018.2 hPa | 0 mm | - | 372 W/m² | - |
| 1777883768 | 21.11° C | 55% | 1018.2 hPa | 0 mm | - | 572 W/m² | - |
| 1777883407 | 20.56° C | 56% | 1018.1 hPa | 0 mm | - | 673 W/m² | - |
| 1777883048 | 20.56° C | 57% | 1018.2 hPa | 0 mm | - | 513 W/m² | - |
| 1777882688 | 20.56° C | 57% | 1018.3 hPa | 0 mm | - | 576 W/m² | - |
| 1777882327 | 20.56° C | 57% | 1018.2 hPa | 0 mm | - | 545 W/m² | - |
| 1777881968 | 20° C | 57% | 1018.3 hPa | 0 mm | - | 495 W/m² | - |
* Rain latest hour (hover to see other rain measurements)
** Current wind speed in m/s (hover to see current wind gust speed)